sensor_id;sensor_type;location;lat;lon;timestamp;pressure;altitude;pressure_sealevel;temperature;humidity
3082;BME280;1551;51.046;7.010;2023-07-13T00:01:40;100858.03;;;20.02;49.85
3082;BME280;1551;51.046;7.010;2023-07-13T00:04:29;100860.16;;;19.94;50.12
3082;BME280;1551;51.046;7.010;2023-07-13T00:07:18;100846.25;;;19.95;50.38
3082;BME280;1551;51.046;7.010;2023-07-13T00:10:10;100859.84;;;20.00;50.43
3082;BME280;1551;51.046;7.010;2023-07-13T00:12:59;100865.69;;;20.05;50.49
3082;BME280;1551;51.046;7.010;2023-07-13T00:15:48;100863.38;;;19.99;50.49
3082;BME280;1551;51.046;7.010;2023-07-13T00:18:37;100855.81;;;19.95;50.67
3082;BME280;1551;51.046;7.010;2023-07-13T00:21:27;100851.38;;;19.97;50.59
3082;BME280;1551;51.046;7.010;2023-07-13T00:24:18;100861.84;;;19.95;50.53
3082;BME280;1551;51.046;7.010;2023-07-13T00:27:12;100859.63;;;19.86;51.05
3082;BME280;1551;51.046;7.010;2023-07-13T00:30:01;100855.72;;;19.96;50.86
3082;BME280;1551;51.046;7.010;2023-07-13T00:32:53;100859.63;;;20.05;50.69
3082;BME280;1551;51.046;7.010;2023-07-13T00:35:41;100864.50;;;20.12;50.41
3082;BME280;1551;51.046;7.010;2023-07-13T00:38:32;100853.41;;;20.09;50.25
3082;BME280;1551;51.046;7.010;2023-07-13T00:41:21;100856.28;;;20.03;50.54
3082;BME280;1551;51.046;7.010;2023-07-13T00:44:13;100857.56;;;19.94;50.78
3082;BME280;1551;51.046;7.010;2023-07-13T00:47:03;100863.38;;;19.80;51.09
3082;BME280;1551;51.046;7.010;2023-07-13T00:49:52;100865.47;;;19.72;51.42
3082;BME280;1551;51.046;7.010;2023-07-13T00:52:44;100857.63;;;19.74;51.35
3082;BME280;1551;51.046;7.010;2023-07-13T00:55:35;100862.03;;;19.72;51.60
3082;BME280;1551;51.046;7.010;2023-07-13T00:58:25;100858.09;;;19.63;51.94
3082;BME280;1551;51.046;7.010;2023-07-13T01:01:14;100850.94;;;19.68;51.94
3082;BME280;1551;51.046;7.010;2023-07-13T01:04:03;100853.63;;;19.67;52.13
3082;BME280;1551;51.046;7.010;2023-07-13T01:06:57;100849.41;;;19.64;52.12
3082;BME280;1551;51.046;7.010;2023-07-13T01:09:47;100849.25;;;19.67;52.09
3082;BME280;1551;51.046;7.010;2023-07-13T01:12:36;100849.72;;;19.57;52.46
3082;BME280;1551;51.046;7.010;2023-07-13T01:15:52;100857.44;;;19.58;52.53
3082;BME280;1551;51.046;7.010;2023-07-13T01:18:43;100850.50;;;19.59;52.48
3082;BME280;1551;51.046;7.010;2023-07-13T01:21:32;100845.59;;;19.53;52.68
3082;BME280;1551;51.046;7.010;2023-07-13T01:24:22;100858.50;;;19.54;52.81
3082;BME280;1551;51.046;7.010;2023-07-13T01:27:15;100848.56;;;19.44;53.05
3082;BME280;1551;51.046;7.010;2023-07-13T01:30:04;100857.72;;;19.32;53.21
3082;BME280;1551;51.046;7.010;2023-07-13T01:32:58;100858.84;;;19.27;53.70
3082;BME280;1551;51.046;7.010;2023-07-13T01:35:48;100857.22;;;19.24;53.77
3082;BME280;1551;51.046;7.010;2023-07-13T01:38:39;100858.25;;;19.20;53.99
3082;BME280;1551;51.046;7.010;2023-07-13T01:41:29;100859.66;;;19.07;54.26
3082;BME280;1551;51.046;7.010;2023-07-13T01:44:18;100865.13;;;19.01;54.46
3082;BME280;1551;51.046;7.010;2023-07-13T01:47:07;100853.06;;;19.00;54.62
3082;BME280;1551;51.046;7.010;2023-07-13T01:49:57;100858.44;;;18.95;54.71
3082;BME280;1551;51.046;7.010;2023-07-13T01:52:46;100850.66;;;18.95;54.94
3082;BME280;1551;51.046;7.010;2023-07-13T01:55:36;100866.41;;;18.91;54.89
3082;BME280;1551;51.046;7.010;2023-07-13T01:58:25;100859.78;;;18.84;55.15
3082;BME280;1551;51.046;7.010;2023-07-13T02:01:14;100854.91;;;18.76;55.15
3082;BME280;1551;51.046;7.010;2023-07-13T02:04:03;100850.88;;;18.69;55.45
3082;BME280;1551;51.046;7.010;2023-07-13T02:06:56;100857.19;;;18.64;55.82
3082;BME280;1551;51.046;7.010;2023-07-13T02:09:45;100872.78;;;18.62;56.10
3082;BME280;1551;51.046;7.010;2023-07-13T02:12:34;100865.25;;;18.56;56.48
3082;BME280;1551;51.046;7.010;2023-07-13T02:15:23;100866.41;;;18.49;56.81
3082;BME280;1551;51.046;7.010;2023-07-13T02:18:12;100868.56;;;18.60;57.13
3082;BME280;1551;51.046;7.010;2023-07-13T02:21:05;100871.78;;;18.66;57.08
3082;BME280;1551;51.046;7.010;2023-07-13T02:23:54;100869.03;;;18.69;57.03
3082;BME280;1551;51.046;7.010;2023-07-13T02:26:44;100867.13;;;18.52;57.30
3082;BME280;1551;51.046;7.010;2023-07-13T02:29:33;100879.00;;;18.58;57.21
3082;BME280;1551;51.046;7.010;2023-07-13T02:32:22;100869.53;;;18.57;57.38
3082;BME280;1551;51.046;7.010;2023-07-13T02:35:11;100861.34;;;18.46;57.69
3082;BME280;1551;51.046;7.010;2023-07-13T02:38:00;100863.31;;;18.39;57.95
3082;BME280;1551;51.046;7.010;2023-07-13T02:40:49;100868.59;;;18.36;57.93
3082;BME280;1551;51.046;7.010;2023-07-13T02:43:39;100875.00;;;18.28;58.14
3082;BME280;1551;51.046;7.010;2023-07-13T02:46:32;100872.63;;;18.22;58.44
3082;BME280;1551;51.046;7.010;2023-07-13T02:49:22;100867.41;;;18.23;58.34
3082;BME280;1551;51.046;7.010;2023-07-13T02:52:11;100871.56;;;18.27;58.48
3082;BME280;1551;51.046;7.010;2023-07-13T02:55:00;100872.28;;;18.31;58.56
3082;BME280;1551;51.046;7.010;2023-07-13T02:57:49;100870.22;;;18.39;58.24
3082;BME280;1551;51.046;7.010;2023-07-13T03:00:39;100864.78;;;18.46;58.26
3082;BME280;1551;51.046;7.010;2023-07-13T03:03:30;100872.44;;;18.49;57.97
3082;BME280;1551;51.046;7.010;2023-07-13T03:06:19;100866.75;;;18.40;58.04
3082;BME280;1551;51.046;7.010;2023-07-13T03:09:13;100878.66;;;18.44;57.95
3082;BME280;1551;51.046;7.010;2023-07-13T03:12:06;100884.59;;;18.47;57.97
3082;BME280;1551;51.046;7.010;2023-07-13T03:14:57;100883.94;;;18.42;57.83
3082;BME280;1551;51.046;7.010;2023-07-13T03:17:46;100883.13;;;18.40;57.89
3082;BME280;1551;51.046;7.010;2023-07-13T03:20:36;100879.81;;;18.37;57.64
3082;BME280;1551;51.046;7.010;2023-07-13T03:23:25;100880.97;;;18.30;57.81
3082;BME280;1551;51.046;7.010;2023-07-13T03:26:17;100881.91;;;18.27;57.83
3082;BME280;1551;51.046;7.010;2023-07-13T03:29:07;100884.50;;;18.27;57.80
3082;BME280;1551;51.046;7.010;2023-07-13T03:31:57;100868.56;;;18.15;57.77
3082;BME280;1551;51.046;7.010;2023-07-13T03:34:46;100892.53;;;18.21;57.69
3082;BME280;1551;51.046;7.010;2023-07-13T03:37:36;100893.53;;;18.17;57.85
3082;BME280;1551;51.046;7.010;2023-07-13T03:40:34;100892.63;;;18.18;58.09
3082;BME280;1551;51.046;7.010;2023-07-13T03:43:23;100901.13;;;18.22;57.77
3082;BME280;1551;51.046;7.010;2023-07-13T03:46:12;100893.66;;;18.14;57.91
3082;BME280;1551;51.046;7.010;2023-07-13T03:49:01;100902.41;;;18.12;58.01
3082;BME280;1551;51.046;7.010;2023-07-13T03:51:50;100913.72;;;18.09;58.36
3082;BME280;1551;51.046;7.010;2023-07-13T03:54:39;100917.19;;;18.08;58.53
3082;BME280;1551;51.046;7.010;2023-07-13T03:57:29;100913.03;;;18.04;58.75
3082;BME280;1551;51.046;7.010;2023-07-13T04:00:20;100913.31;;;17.97;59.04
3082;BME280;1551;51.046;7.010;2023-07-13T04:03:09;100915.13;;;17.95;59.13
3082;BME280;1551;51.046;7.010;2023-07-13T04:05:59;100904.88;;;17.92;59.40
3082;BME280;1551;51.046;7.010;2023-07-13T04:08:51;100916.59;;;18.02;59.67
3082;BME280;1551;51.046;7.010;2023-07-13T04:11:41;100908.91;;;17.99;59.63
3082;BME280;1551;51.046;7.010;2023-07-13T04:14:30;100915.44;;;18.09;59.45
3082;BME280;1551;51.046;7.010;2023-07-13T04:17:20;100923.28;;;18.07;59.64
3082;BME280;1551;51.046;7.010;2023-07-13T04:20:10;100924.28;;;18.03;60.08
3082;BME280;1551;51.046;7.010;2023-07-13T04:22:58;100931.34;;;18.00;60.32
3082;BME280;1551;51.046;7.010;2023-07-13T04:25:48;100935.28;;;18.10;60.47
3082;BME280;1551;51.046;7.010;2023-07-13T04:28:38;100929.28;;;18.08;60.75
3082;BME280;1551;51.046;7.010;2023-07-13T04:31:27;100928.22;;;18.13;60.44
3082;BME280;1551;51.046;7.010;2023-07-13T04:34:17;100929.00;;;18.15;60.36
3082;BME280;1551;51.046;7.010;2023-07-13T04:37:06;100936.88;;;18.12;60.62
3082;BME280;1551;51.046;7.010;2023-07-13T04:39:55;100929.97;;;18.13;60.77
3082;BME280;1551;51.046;7.010;2023-07-13T04:42:45;100921.81;;;18.23;60.61
3082;BME280;1551;51.046;7.010;2023-07-13T04:45:35;100933.63;;;18.30;60.39
3082;BME280;1551;51.046;7.010;2023-07-13T04:48:24;100925.56;;;18.38;60.63
3082;BME280;1551;51.046;7.010;2023-07-13T04:51:13;100937.97;;;18.53;60.20
3082;BME280;1551;51.046;7.010;2023-07-13T04:54:02;100930.38;;;18.48;60.20
3082;BME280;1551;51.046;7.010;2023-07-13T04:56:51;100929.66;;;18.43;60.21
3082;BME280;1551;51.046;7.010;2023-07-13T04:59:40;100935.66;;;18.67;60.09
3082;BME280;1551;51.046;7.010;2023-07-13T05:02:29;100943.03;;;18.78;59.80
3082;BME280;1551;51.046;7.010;2023-07-13T05:05:20;100934.34;;;18.79;59.86
3082;BME280;1551;51.046;7.010;2023-07-13T05:08:09;100949.84;;;18.80;59.54
3082;BME280;1551;51.046;7.010;2023-07-13T05:11:00;100947.31;;;18.79;59.46
3082;BME280;1551;51.046;7.010;2023-07-13T05:13:49;100951.72;;;18.77;59.30
3082;BME280;1551;51.046;7.010;2023-07-13T05:16:38;100957.28;;;18.68;59.99
3082;BME280;1551;51.046;7.010;2023-07-13T05:19:27;100951.41;;;18.63;60.41
3082;BME280;1551;51.046;7.010;2023-07-13T05:22:16;100952.69;;;18.74;60.53
3082;BME280;1551;51.046;7.010;2023-07-13T05:25:06;100955.03;;;18.80;60.14
3082;BME280;1551;51.046;7.010;2023-07-13T05:27:55;100960.84;;;18.87;59.95
3082;BME280;1551;51.046;7.010;2023-07-13T05:30:48;100962.56;;;19.08;60.09
3082;BME280;1551;51.046;7.010;2023-07-13T05:33:38;100978.22;;;19.27;59.44
3082;BME280;1551;51.046;7.010;2023-07-13T05:36:27;100963.47;;;19.07;59.69
3082;BME280;1551;51.046;7.010;2023-07-13T05:39:16;100974.03;;;19.02;59.75
3082;BME280;1551;51.046;7.010;2023-07-13T05:42:05;100968.16;;;18.97;60.16
3082;BME280;1551;51.046;7.010;2023-07-13T05:44:55;100968.75;;;19.26;59.88
3082;BME280;1551;51.046;7.010;2023-07-13T05:47:44;100972.41;;;19.42;59.26
3082;BME280;1551;51.046;7.010;2023-07-13T05:50:33;100985.63;;;19.57;59.06
3082;BME280;1551;51.046;7.010;2023-07-13T05:53:22;100977.81;;;19.57;59.06
3082;BME280;1551;51.046;7.010;2023-07-13T05:56:11;100991.06;;;19.71;58.73
3082;BME280;1551;51.046;7.010;2023-07-13T05:59:00;100976.84;;;19.40;59.06
3082;BME280;1551;51.046;7.010;2023-07-13T06:01:49;100986.13;;;19.45;59.65
3082;BME280;1551;51.046;7.010;2023-07-13T06:04:38;100990.94;;;19.54;59.63
3082;BME280;1551;51.046;7.010;2023-07-13T06:07:27;100985.72;;;19.54;59.62
3082;BME280;1551;51.046;7.010;2023-07-13T06:10:16;100989.56;;;19.46;59.81
3082;BME280;1551;51.046;7.010;2023-07-13T06:13:05;100988.41;;;19.31;60.29
3082;BME280;1551;51.046;7.010;2023-07-13T06:15:54;100992.63;;;19.34;60.62
3082;BME280;1551;51.046;7.010;2023-07-13T06:18:43;100998.56;;;19.37;60.95
3082;BME280;1551;51.046;7.010;2023-07-13T06:21:32;101006.34;;;19.37;60.85
3082;BME280;1551;51.046;7.010;2023-07-13T06:24:21;101003.31;;;19.26;61.15
3082;BME280;1551;51.046;7.010;2023-07-13T06:27:10;100988.19;;;19.37;61.46
3082;BME280;1551;51.046;7.010;2023-07-13T06:29:59;101006.44;;;19.76;60.92
3082;BME280;1551;51.046;7.010;2023-07-13T06:32:49;101002.78;;;20.00;60.73
3082;BME280;1551;51.046;7.010;2023-07-13T06:35:38;101001.97;;;20.18;60.41
3082;BME280;1551;51.046;7.010;2023-07-13T06:38:27;101019.50;;;20.33;59.75
3082;BME280;1551;51.046;7.010;2023-07-13T06:41:16;101010.13;;;20.11;59.95
3082;BME280;1551;51.046;7.010;2023-07-13T06:44:05;101007.50;;;20.31;59.70
3082;BME280;1551;51.046;7.010;2023-07-13T06:46:55;100988.34;;;20.13;59.70
3082;BME280;1551;51.046;7.010;2023-07-13T06:49:44;101014.25;;;20.35;59.42
3082;BME280;1551;51.046;7.010;2023-07-13T06:52:33;101012.41;;;20.74;58.79
3082;BME280;1551;51.046;7.010;2023-07-13T06:55:22;101006.75;;;21.02;58.07
3082;BME280;1551;51.046;7.010;2023-07-13T06:58:11;101006.81;;;21.19;57.47
3082;BME280;1551;51.046;7.010;2023-07-13T07:01:00;101014.63;;;21.00;56.94
3082;BME280;1551;51.046;7.010;2023-07-13T07:03:49;101021.28;;;21.24;57.39
3082;BME280;1551;51.046;7.010;2023-07-13T07:06:38;101025.50;;;21.78;56.03
3082;BME280;1551;51.046;7.010;2023-07-13T07:09:27;101024.75;;;21.94;55.37
3082;BME280;1551;51.046;7.010;2023-07-13T07:12:16;101025.75;;;22.08;54.54
3082;BME280;1551;51.046;7.010;2023-07-13T07:15:05;101037.19;;;21.88;54.80
3082;BME280;1551;51.046;7.010;2023-07-13T07:17:54;101023.44;;;21.68;54.99
3082;BME280;1551;51.046;7.010;2023-07-13T07:20:43;101030.16;;;22.06;54.72
3082;BME280;1551;51.046;7.010;2023-07-13T07:23:32;101045.59;;;22.11;54.02
3082;BME280;1551;51.046;7.010;2023-07-13T07:26:20;101047.91;;;21.82;55.00
3082;BME280;1551;51.046;7.010;2023-07-13T07:29:09;101048.66;;;22.02;54.88
3082;BME280;1551;51.046;7.010;2023-07-13T07:31:59;101045.75;;;21.90;54.97
3082;BME280;1551;51.046;7.010;2023-07-13T07:34:49;101033.91;;;21.85;54.96
3082;BME280;1551;51.046;7.010;2023-07-13T07:37:38;101040.56;;;21.90;55.20
3082;BME280;1551;51.046;7.010;2023-07-13T07:40:27;101032.50;;;21.95;55.12
3082;BME280;1551;51.046;7.010;2023-07-13T07:43:16;101054.09;;;22.14;54.99
3082;BME280;1551;51.046;7.010;2023-07-13T07:46:05;101044.91;;;22.07;55.17
3082;BME280;1551;51.046;7.010;2023-07-13T07:48:55;101046.91;;;22.35;54.52
3082;BME280;1551;51.046;7.010;2023-07-13T07:51:44;101033.97;;;22.16;54.27
3082;BME280;1551;51.046;7.010;2023-07-13T07:54:33;101042.88;;;22.29;53.79
3082;BME280;1551;51.046;7.010;2023-07-13T07:57:22;101034.22;;;22.44;53.78
3082;BME280;1551;51.046;7.010;2023-07-13T08:00:11;101039.06;;;22.68;53.18
3082;BME280;1551;51.046;7.010;2023-07-13T08:03:03;101044.81;;;22.90;52.58
3082;BME280;1551;51.046;7.010;2023-07-13T08:05:53;101047.66;;;23.01;52.56
3082;BME280;1551;51.046;7.010;2023-07-13T08:08:43;101047.22;;;23.08;51.35
3082;BME280;1551;51.046;7.010;2023-07-13T08:11:32;101038.88;;;22.55;52.68
3082;BME280;1551;51.046;7.010;2023-07-13T08:14:21;101053.47;;;22.90;52.30
3082;BME280;1551;51.046;7.010;2023-07-13T08:17:09;101048.66;;;23.14;51.94
3082;BME280;1551;51.046;7.010;2023-07-13T08:19:58;101054.59;;;23.32;51.87
3082;BME280;1551;51.046;7.010;2023-07-13T08:22:47;101042.22;;;23.19;51.72
3082;BME280;1551;51.046;7.010;2023-07-13T08:25:36;101054.94;;;23.41;51.91
3082;BME280;1551;51.046;7.010;2023-07-13T08:28:25;101029.22;;;23.93;50.52
3082;BME280;1551;51.046;7.010;2023-07-13T08:31:14;101039.59;;;24.79;49.27
3082;BME280;1551;51.046;7.010;2023-07-13T08:34:03;101038.72;;;24.93;47.86
3082;BME280;1551;51.046;7.010;2023-07-13T08:36:52;101041.06;;;24.83;48.24
3082;BME280;1551;51.046;7.010;2023-07-13T08:39:41;101035.13;;;24.53;48.33
3082;BME280;1551;51.046;7.010;2023-07-13T08:42:44;101046.84;;;24.19;48.73
3082;BME280;1551;51.046;7.010;2023-07-13T08:45:47;101045.13;;;24.60;48.75
3082;BME280;1551;51.046;7.010;2023-07-13T08:49:24;101038.44;;;24.69;48.03
3082;BME280;1551;51.046;7.010;2023-07-13T08:52:05;101053.56;;;24.23;48.36
3082;BME280;1551;51.046;7.010;2023-07-13T08:55:05;101020.81;;;24.02;48.77
3082;BME280;1551;51.046;7.010;2023-07-13T08:58:02;101043.63;;;24.56;48.42
3082;BME280;1551;51.046;7.010;2023-07-13T09:00:58;101031.06;;;24.76;47.46
3082;BME280;1551;51.046;7.010;2023-07-13T09:04:04;101036.09;;;24.93;47.57
3082;BME280;1551;51.046;7.010;2023-07-13T09:15:46;101034.88;;;25.89;45.51
3082;BME280;1551;51.046;7.010;2023-07-13T09:18:38;101043.66;;;26.64;43.61
3082;BME280;1551;51.046;7.010;2023-07-13T09:21:35;101033.22;;;26.26;43.62
3082;BME280;1551;51.046;7.010;2023-07-13T09:24:38;101039.31;;;26.27;43.53
3082;BME280;1551;51.046;7.010;2023-07-13T09:27:35;101028.72;;;25.90;44.44
3082;BME280;1551;51.046;7.010;2023-07-13T09:30:52;101033.13;;;26.64;43.50
3082;BME280;1551;51.046;7.010;2023-07-13T09:33:43;101042.16;;;27.09;42.07
3082;BME280;1551;51.046;7.010;2023-07-13T09:36:33;101043.06;;;27.55;42.12
3082;BME280;1551;51.046;7.010;2023-07-13T09:39:27;101043.81;;;28.03;40.85
3082;BME280;1551;51.046;7.010;2023-07-13T09:42:19;101048.13;;;28.15;39.76
3082;BME280;1551;51.046;7.010;2023-07-13T09:45:10;101032.50;;;27.90;40.25
3082;BME280;1551;51.046;7.010;2023-07-13T09:48:04;101038.50;;;27.46;41.60
3082;BME280;1551;51.046;7.010;2023-07-13T09:50:54;101029.16;;;27.77;41.30
3082;BME280;1551;51.046;7.010;2023-07-13T09:53:45;101040.28;;;27.80;40.63
3082;BME280;1551;51.046;7.010;2023-07-13T09:56:34;101049.41;;;27.99;40.18
3082;BME280;1551;51.046;7.010;2023-07-13T09:59:29;101064.06;;;28.36;39.97
3082;BME280;1551;51.046;7.010;2023-07-13T10:02:35;101054.72;;;28.32;38.93
3082;BME280;1551;51.046;7.010;2023-07-13T10:05:24;101053.66;;;27.66;40.20
3082;BME280;1551;51.046;7.010;2023-07-13T10:08:23;101049.13;;;27.79;40.44
3082;BME280;1551;51.046;7.010;2023-07-13T10:14:18;101056.00;;;27.58;40.27
3082;BME280;1551;51.046;7.010;2023-07-13T10:17:12;101059.56;;;27.46;39.97
3082;BME280;1551;51.046;7.010;2023-07-13T10:20:04;101071.28;;;27.06;41.31
3082;BME280;1551;51.046;7.010;2023-07-13T10:22:58;101063.69;;;27.61;40.95
3082;BME280;1551;51.046;7.010;2023-07-13T10:25:49;101055.22;;;27.80;39.89
3082;BME280;1551;51.046;7.010;2023-07-13T10:28:40;101058.22;;;27.86;39.59
3082;BME280;1551;51.046;7.010;2023-07-13T10:31:31;101073.38;;;28.29;39.64
3082;BME280;1551;51.046;7.010;2023-07-13T10:34:20;101077.00;;;27.82;39.73
3082;BME280;1551;51.046;7.010;2023-07-13T10:37:17;101061.75;;;27.52;39.97
3082;BME280;1551;51.046;7.010;2023-07-13T10:40:13;101065.63;;;27.23;40.62
3082;BME280;1551;51.046;7.010;2023-07-13T10:43:09;101071.59;;;28.29;38.70
3082;BME280;1551;51.046;7.010;2023-07-13T10:46:04;101082.78;;;29.72;36.91
3082;BME280;1551;51.046;7.010;2023-07-13T10:48:57;101072.00;;;30.26;35.01
3082;BME280;1551;51.046;7.010;2023-07-13T10:51:47;101073.41;;;30.30;34.87
3082;BME280;1551;51.046;7.010;2023-07-13T10:54:36;101071.38;;;29.51;35.53
3082;BME280;1551;51.046;7.010;2023-07-13T10:57:25;101087.72;;;28.03;38.04
3082;BME280;1551;51.046;7.010;2023-07-13T11:00:18;101076.63;;;27.41;39.01
3082;BME280;1551;51.046;7.010;2023-07-13T11:03:13;101090.38;;;26.72;40.03
3082;BME280;1551;51.046;7.010;2023-07-13T11:06:13;101072.03;;;26.09;40.82
3082;BME280;1551;51.046;7.010;2023-07-13T11:09:36;101069.41;;;25.96;41.79
3082;BME280;1551;51.046;7.010;2023-07-13T11:12:29;101072.69;;;26.12;41.29
3082;BME280;1551;51.046;7.010;2023-07-13T11:15:45;101075.06;;;26.03;41.07
3082;BME280;1551;51.046;7.010;2023-07-13T11:18:36;101075.38;;;25.73;41.85
3082;BME280;1551;51.046;7.010;2023-07-13T11:21:26;101074.13;;;25.91;41.97
3082;BME280;1551;51.046;7.010;2023-07-13T11:24:17;101076.56;;;26.07;41.37
3082;BME280;1551;51.046;7.010;2023-07-13T11:27:33;101067.25;;;26.28;40.60
3082;BME280;1551;51.046;7.010;2023-07-13T11:30:34;101075.09;;;26.40;40.73
3082;BME280;1551;51.046;7.010;2023-07-13T11:33:28;101063.41;;;26.57;40.63
3082;BME280;1551;51.046;7.010;2023-07-13T11:36:21;101072.03;;;27.08;40.28
3082;BME280;1551;51.046;7.010;2023-07-13T11:39:20;101072.63;;;27.11;39.85
3082;BME280;1551;51.046;7.010;2023-07-13T11:42:15;101075.72;;;27.99;38.06
3082;BME280;1551;51.046;7.010;2023-07-13T11:45:18;101078.53;;;27.73;37.51
3082;BME280;1551;51.046;7.010;2023-07-13T11:48:23;101072.19;;;26.94;38.99
3082;BME280;1551;51.046;7.010;2023-07-13T11:51:19;101071.00;;;25.99;40.29
3082;BME280;1551;51.046;7.010;2023-07-13T11:54:34;101071.88;;;26.12;40.67
3082;BME280;1551;51.046;7.010;2023-07-13T12:00:21;101074.03;;;26.43;41.22
3082;BME280;1551;51.046;7.010;2023-07-13T12:03:11;101060.91;;;26.55;40.65
3082;BME280;1551;51.046;7.010;2023-07-13T12:06:04;101066.03;;;27.53;39.09
3082;BME280;1551;51.046;7.010;2023-07-13T12:08:58;101062.25;;;27.68;38.80
3082;BME280;1551;51.046;7.010;2023-07-13T12:11:47;101049.66;;;27.50;38.60
3082;BME280;1551;51.046;7.010;2023-07-13T12:14:36;101061.28;;;27.35;38.75
3082;BME280;1551;51.046;7.010;2023-07-13T12:17:25;101053.09;;;27.50;38.71
3082;BME280;1551;51.046;7.010;2023-07-13T12:20:24;101052.38;;;27.94;37.22
3082;BME280;1551;51.046;7.010;2023-07-13T12:23:22;101063.44;;;28.10;35.52
3082;BME280;1551;51.046;7.010;2023-07-13T12:26:13;101055.06;;;28.38;35.78
3082;BME280;1551;51.046;7.010;2023-07-13T12:29:06;101074.81;;;28.88;35.15
3082;BME280;1551;51.046;7.010;2023-07-13T12:31:55;101067.19;;;28.74;34.74
3082;BME280;1551;51.046;7.010;2023-07-13T12:35:14;101062.16;;;28.60;35.47
3082;BME280;1551;51.046;7.010;2023-07-13T12:38:01;101050.75;;;28.04;36.31
3082;BME280;1551;51.046;7.010;2023-07-13T12:40:51;101048.75;;;27.62;36.75
3082;BME280;1551;51.046;7.010;2023-07-13T12:43:41;101050.75;;;27.11;37.64
3082;BME280;1551;51.046;7.010;2023-07-13T12:46:30;101060.53;;;27.33;37.61
3082;BME280;1551;51.046;7.010;2023-07-13T12:49:24;101042.06;;;26.61;38.36
3082;BME280;1551;51.046;7.010;2023-07-13T12:52:16;101054.88;;;26.66;38.30
3082;BME280;1551;51.046;7.010;2023-07-13T12:55:10;101045.50;;;26.87;37.85
3082;BME280;1551;51.046;7.010;2023-07-13T12:58:03;101048.25;;;26.73;37.82
3082;BME280;1551;51.046;7.010;2023-07-13T13:00:56;101053.19;;;26.78;38.17
3082;BME280;1551;51.046;7.010;2023-07-13T13:03:50;101068.25;;;26.38;38.22
3082;BME280;1551;51.046;7.010;2023-07-13T13:06:40;101052.31;;;26.28;38.78
3082;BME280;1551;51.046;7.010;2023-07-13T13:09:30;101052.44;;;26.27;38.94
3082;BME280;1551;51.046;7.010;2023-07-13T13:12:19;101048.94;;;26.51;38.32
3082;BME280;1551;51.046;7.010;2023-07-13T13:15:10;101061.75;;;26.43;38.57
3082;BME280;1551;51.046;7.010;2023-07-13T13:18:00;101063.63;;;26.54;37.49
3082;BME280;1551;51.046;7.010;2023-07-13T13:20:50;101062.84;;;26.16;37.74
3082;BME280;1551;51.046;7.010;2023-07-13T13:23:39;101073.44;;;26.27;37.78
3082;BME280;1551;51.046;7.010;2023-07-13T13:26:28;101044.53;;;27.01;37.01
3082;BME280;1551;51.046;7.010;2023-07-13T13:29:22;101043.59;;;27.71;36.12
3082;BME280;1551;51.046;7.010;2023-07-13T13:32:14;101049.78;;;28.05;35.54
3082;BME280;1551;51.046;7.010;2023-07-13T13:35:03;101059.16;;;28.20;35.17
3082;BME280;1551;51.046;7.010;2023-07-13T13:37:53;101056.09;;;27.91;34.81
3082;BME280;1551;51.046;7.010;2023-07-13T13:40:43;101032.53;;;26.97;36.15
3082;BME280;1551;51.046;7.010;2023-07-13T13:43:32;101042.47;;;27.28;36.23
3082;BME280;1551;51.046;7.010;2023-07-13T13:46:24;101050.28;;;27.64;35.53
3082;BME280;1551;51.046;7.010;2023-07-13T13:49:21;101038.88;;;27.29;35.81
3082;BME280;1551;51.046;7.010;2023-07-13T13:52:10;101044.22;;;27.75;35.79
3082;BME280;1551;51.046;7.010;2023-07-13T13:54:59;101042.03;;;28.59;34.61
3082;BME280;1551;51.046;7.010;2023-07-13T13:57:49;101044.06;;;28.22;34.48
3082;BME280;1551;51.046;7.010;2023-07-13T14:00:38;101040.38;;;27.79;35.04
3082;BME280;1551;51.046;7.010;2023-07-13T14:03:27;101041.78;;;28.18;34.81
3082;BME280;1551;51.046;7.010;2023-07-13T14:06:17;101041.09;;;28.60;34.16
3082;BME280;1551;51.046;7.010;2023-07-13T14:09:09;101041.41;;;28.55;33.47
3082;BME280;1551;51.046;7.010;2023-07-13T14:11:59;101036.16;;;28.33;34.09
3082;BME280;1551;51.046;7.010;2023-07-13T14:14:48;101044.88;;;28.01;34.70
3082;BME280;1551;51.046;7.010;2023-07-13T14:17:37;101043.34;;;28.20;34.51
3082;BME280;1551;51.046;7.010;2023-07-13T14:20:26;101047.22;;;27.92;33.87
3082;BME280;1551;51.046;7.010;2023-07-13T14:23:16;101046.56;;;27.56;34.34
3082;BME280;1551;51.046;7.010;2023-07-13T14:26:11;101047.03;;;27.50;34.35
3082;BME280;1551;51.046;7.010;2023-07-13T14:29:01;101034.03;;;27.70;34.88
3082;BME280;1551;51.046;7.010;2023-07-13T14:31:50;101050.34;;;27.98;33.56
3082;BME280;1551;51.046;7.010;2023-07-13T14:34:39;101044.84;;;27.44;33.33
3082;BME280;1551;51.046;7.010;2023-07-13T14:37:29;101054.00;;;27.62;33.98
3082;BME280;1551;51.046;7.010;2023-07-13T14:40:24;101040.44;;;27.55;33.57
3082;BME280;1551;51.046;7.010;2023-07-13T14:43:16;101039.94;;;27.85;33.79
3082;BME280;1551;51.046;7.010;2023-07-13T14:46:26;101043.81;;;28.25;33.62
3082;BME280;1551;51.046;7.010;2023-07-13T14:49:24;101041.72;;;27.73;34.53
3082;BME280;1551;51.046;7.010;2023-07-13T14:52:21;101047.34;;;27.80;34.49
3082;BME280;1551;51.046;7.010;2023-07-13T14:55:17;101045.72;;;27.55;35.16
3082;BME280;1551;51.046;7.010;2023-07-13T14:58:07;101049.47;;;27.64;35.20
3082;BME280;1551;51.046;7.010;2023-07-13T15:00:55;101047.53;;;27.55;35.54
3082;BME280;1551;51.046;7.010;2023-07-13T15:03:48;101039.94;;;27.50;36.50
3082;BME280;1551;51.046;7.010;2023-07-13T15:07:00;101045.22;;;27.50;35.76
3082;BME280;1551;51.046;7.010;2023-07-13T15:09:50;101043.94;;;26.85;35.92
3082;BME280;1551;51.046;7.010;2023-07-13T15:12:40;101043.50;;;27.14;36.13
3082;BME280;1551;51.046;7.010;2023-07-13T15:15:31;101035.81;;;27.35;35.63
3082;BME280;1551;51.046;7.010;2023-07-13T15:18:24;101041.41;;;27.31;35.55
3082;BME280;1551;51.046;7.010;2023-07-13T15:21:20;101046.84;;;27.16;35.70
3082;BME280;1551;51.046;7.010;2023-07-13T15:24:10;101050.97;;;27.32;36.00
3082;BME280;1551;51.046;7.010;2023-07-13T15:26:59;101047.63;;;27.06;35.62
3082;BME280;1551;51.046;7.010;2023-07-13T15:29:48;101053.38;;;26.38;36.53
3082;BME280;1551;51.046;7.010;2023-07-13T15:32:37;101045.53;;;26.13;36.92
3082;BME280;1551;51.046;7.010;2023-07-13T15:35:28;101052.16;;;26.19;37.27